sensor_id;sensor_type;location;lat;lon;timestamp;P1;durP1;ratioP1;P2;durP2;ratioP2
51272;SDS011;37345;59.828;30.328;2022-12-07T00:00:01;12.02;;;7.03;;
51272;SDS011;37345;59.828;30.328;2022-12-07T00:02:27;12.07;;;6.90;;
51272;SDS011;37345;59.828;30.328;2022-12-07T00:04:53;11.02;;;6.25;;
51272;SDS011;37345;59.828;30.328;2022-12-07T00:07:19;12.05;;;6.32;;
51272;SDS011;37345;59.828;30.328;2022-12-07T00:09:45;9.82;;;5.60;;
51272;SDS011;37345;59.828;30.328;2022-12-07T00:12:11;10.30;;;5.45;;
51272;SDS011;37345;59.828;30.328;2022-12-07T00:14:37;11.70;;;5.93;;
51272;SDS011;37345;59.828;30.328;2022-12-07T00:17:04;11.35;;;6.22;;
51272;SDS011;37345;59.828;30.328;2022-12-07T00:19:30;9.93;;;5.53;;
51272;SDS011;37345;59.828;30.328;2022-12-07T00:21:56;9.80;;;5.97;;
51272;SDS011;37345;59.828;30.328;2022-12-07T00:24:22;8.60;;;4.83;;
51272;SDS011;37345;59.828;30.328;2022-12-07T00:26:48;8.27;;;4.95;;
51272;SDS011;37345;59.828;30.328;2022-12-07T00:29:16;11.93;;;6.90;;
51272;SDS011;37345;59.828;30.328;2022-12-07T00:31:42;11.80;;;5.78;;
51272;SDS011;37345;59.828;30.328;2022-12-07T00:34:12;10.68;;;5.75;;
51272;SDS011;37345;59.828;30.328;2022-12-07T00:36:39;9.23;;;6.00;;
51272;SDS011;37345;59.828;30.328;2022-12-07T00:39:05;9.70;;;5.38;;
51272;SDS011;37345;59.828;30.328;2022-12-07T00:41:31;9.15;;;5.32;;
51272;SDS011;37345;59.828;30.328;2022-12-07T00:43:57;11.13;;;6.68;;
51272;SDS011;37345;59.828;30.328;2022-12-07T00:46:23;11.00;;;5.97;;
51272;SDS011;37345;59.828;30.328;2022-12-07T00:48:50;9.63;;;5.68;;
51272;SDS011;37345;59.828;30.328;2022-12-07T00:51:17;10.10;;;6.13;;
51272;SDS011;37345;59.828;30.328;2022-12-07T00:53:44;9.70;;;6.15;;
51272;SDS011;37345;59.828;30.328;2022-12-07T00:58:39;10.25;;;5.72;;
51272;SDS011;37345;59.828;30.328;2022-12-07T01:01:06;10.85;;;5.78;;
51272;SDS011;37345;59.828;30.328;2022-12-07T01:03:32;11.55;;;5.85;;
51272;SDS011;37345;59.828;30.328;2022-12-07T01:05:59;10.35;;;5.72;;
51272;SDS011;37345;59.828;30.328;2022-12-07T01:08:26;8.32;;;5.13;;
51272;SDS011;37345;59.828;30.328;2022-12-07T01:11:01;10.38;;;6.20;;
51272;SDS011;37345;59.828;30.328;2022-12-07T01:13:28;9.20;;;4.88;;
51272;SDS011;37345;59.828;30.328;2022-12-07T01:15:56;10.88;;;6.20;;
51272;SDS011;37345;59.828;30.328;2022-12-07T01:18:23;8.10;;;5.03;;
51272;SDS011;37345;59.828;30.328;2022-12-07T01:21:02;8.45;;;4.82;;
51272;SDS011;37345;59.828;30.328;2022-12-07T01:23:29;15.00;;;5.57;;
51272;SDS011;37345;59.828;30.328;2022-12-07T01:25:56;9.00;;;5.15;;
51272;SDS011;37345;59.828;30.328;2022-12-07T01:28:22;8.33;;;5.47;;
51272;SDS011;37345;59.828;30.328;2022-12-07T01:30:58;9.18;;;5.57;;
51272;SDS011;37345;59.828;30.328;2022-12-07T01:33:26;9.00;;;5.13;;
51272;SDS011;37345;59.828;30.328;2022-12-07T01:35:52;8.82;;;6.20;;
51272;SDS011;37345;59.828;30.328;2022-12-07T01:38:18;8.57;;;5.40;;
51272;SDS011;37345;59.828;30.328;2022-12-07T01:40:44;8.55;;;5.22;;
51272;SDS011;37345;59.828;30.328;2022-12-07T01:43:17;9.07;;;5.70;;
51272;SDS011;37345;59.828;30.328;2022-12-07T01:45:44;8.55;;;5.20;;
51272;SDS011;37345;59.828;30.328;2022-12-07T01:48:11;8.68;;;5.05;;
51272;SDS011;37345;59.828;30.328;2022-12-07T01:50:38;9.43;;;5.18;;
51272;SDS011;37345;59.828;30.328;2022-12-07T01:53:05;8.37;;;5.43;;
51272;SDS011;37345;59.828;30.328;2022-12-07T01:55:32;9.05;;;5.30;;
51272;SDS011;37345;59.828;30.328;2022-12-07T01:57:59;9.10;;;5.30;;
51272;SDS011;37345;59.828;30.328;2022-12-07T02:00:25;10.25;;;5.15;;
51272;SDS011;37345;59.828;30.328;2022-12-07T02:02:55;7.53;;;4.77;;
51272;SDS011;37345;59.828;30.328;2022-12-07T02:05:23;8.50;;;5.55;;
51272;SDS011;37345;59.828;30.328;2022-12-07T02:07:49;10.23;;;5.50;;
51272;SDS011;37345;59.828;30.328;2022-12-07T02:10:18;9.60;;;5.45;;
51272;SDS011;37345;59.828;30.328;2022-12-07T02:12:44;8.27;;;5.53;;
51272;SDS011;37345;59.828;30.328;2022-12-07T02:15:11;8.27;;;5.60;;
51272;SDS011;37345;59.828;30.328;2022-12-07T02:17:45;9.57;;;5.32;;
51272;SDS011;37345;59.828;30.328;2022-12-07T02:23:12;8.82;;;4.65;;
51272;SDS011;37345;59.828;30.328;2022-12-07T02:30:39;8.65;;;5.03;;
51272;SDS011;37345;59.828;30.328;2022-12-07T02:35:51;7.88;;;4.50;;
51272;SDS011;37345;59.828;30.328;2022-12-07T02:38:26;7.97;;;4.68;;
51272;SDS011;37345;59.828;30.328;2022-12-07T02:41:00;9.45;;;4.95;;
51272;SDS011;37345;59.828;30.328;2022-12-07T02:43:30;8.40;;;4.38;;
51272;SDS011;37345;59.828;30.328;2022-12-07T02:46:01;9.03;;;5.20;;
51272;SDS011;37345;59.828;30.328;2022-12-07T02:48:28;8.30;;;4.75;;
51272;SDS011;37345;59.828;30.328;2022-12-07T02:50:54;8.43;;;4.67;;
51272;SDS011;37345;59.828;30.328;2022-12-07T02:56:03;8.57;;;4.97;;
51272;SDS011;37345;59.828;30.328;2022-12-07T02:58:32;8.40;;;5.53;;
51272;SDS011;37345;59.828;30.328;2022-12-07T03:03:28;8.00;;;4.63;;
51272;SDS011;37345;59.828;30.328;2022-12-07T03:08:44;8.60;;;5.10;;
51272;SDS011;37345;59.828;30.328;2022-12-07T03:11:13;8.40;;;4.95;;
51272;SDS011;37345;59.828;30.328;2022-12-07T03:16:23;9.68;;;5.15;;
51272;SDS011;37345;59.828;30.328;2022-12-07T03:19:07;8.52;;;5.70;;
51272;SDS011;37345;59.828;30.328;2022-12-07T03:21:37;8.55;;;5.28;;
51272;SDS011;37345;59.828;30.328;2022-12-07T03:24:05;8.82;;;5.13;;
51272;SDS011;37345;59.828;30.328;2022-12-07T03:26:34;8.82;;;5.22;;
51272;SDS011;37345;59.828;30.328;2022-12-07T03:29:03;8.47;;;4.57;;
51272;SDS011;37345;59.828;30.328;2022-12-07T03:31:31;8.15;;;5.18;;
51272;SDS011;37345;59.828;30.328;2022-12-07T03:36:30;7.88;;;4.88;;
51272;SDS011;37345;59.828;30.328;2022-12-07T03:39:00;7.85;;;4.57;;
51272;SDS011;37345;59.828;30.328;2022-12-07T03:41:32;8.60;;;4.65;;
51272;SDS011;37345;59.828;30.328;2022-12-07T03:44:00;8.75;;;5.25;;
51272;SDS011;37345;59.828;30.328;2022-12-07T03:56:54;9.45;;;4.75;;
51272;SDS011;37345;59.828;30.328;2022-12-07T03:59:21;7.15;;;4.78;;
51272;SDS011;37345;59.828;30.328;2022-12-07T04:01:52;6.75;;;4.45;;
51272;SDS011;37345;59.828;30.328;2022-12-07T04:04:19;7.53;;;4.57;;
51272;SDS011;37345;59.828;30.328;2022-12-07T04:06:45;6.68;;;4.28;;
51272;SDS011;37345;59.828;30.328;2022-12-07T04:09:11;8.70;;;5.10;;
51272;SDS011;37345;59.828;30.328;2022-12-07T04:11:39;7.75;;;5.05;;
51272;SDS011;37345;59.828;30.328;2022-12-07T04:14:05;6.20;;;4.25;;
51272;SDS011;37345;59.828;30.328;2022-12-07T04:16:50;6.97;;;4.35;;
51272;SDS011;37345;59.828;30.328;2022-12-07T04:19:17;6.95;;;4.22;;
51272;SDS011;37345;59.828;30.328;2022-12-07T04:21:44;8.35;;;4.65;;
51272;SDS011;37345;59.828;30.328;2022-12-07T04:24:11;7.55;;;4.63;;
51272;SDS011;37345;59.828;30.328;2022-12-07T04:26:37;9.13;;;4.78;;
51272;SDS011;37345;59.828;30.328;2022-12-07T04:29:03;7.10;;;4.97;;
51272;SDS011;37345;59.828;30.328;2022-12-07T04:31:29;8.30;;;4.78;;
51272;SDS011;37345;59.828;30.328;2022-12-07T04:33:56;10.20;;;5.53;;
51272;SDS011;37345;59.828;30.328;2022-12-07T04:36:22;9.93;;;5.25;;
51272;SDS011;37345;59.828;30.328;2022-12-07T04:38:48;8.90;;;5.15;;
51272;SDS011;37345;59.828;30.328;2022-12-07T04:41:14;9.32;;;5.30;;
51272;SDS011;37345;59.828;30.328;2022-12-07T04:43:40;7.30;;;4.53;;
51272;SDS011;37345;59.828;30.328;2022-12-07T04:46:06;7.93;;;4.63;;
51272;SDS011;37345;59.828;30.328;2022-12-07T04:48:32;7.73;;;5.00;;
51272;SDS011;37345;59.828;30.328;2022-12-07T04:50:58;8.25;;;5.43;;
51272;SDS011;37345;59.828;30.328;2022-12-07T04:53:24;10.60;;;4.97;;
51272;SDS011;37345;59.828;30.328;2022-12-07T04:55:50;9.20;;;5.45;;
51272;SDS011;37345;59.828;30.328;2022-12-07T04:58:17;9.25;;;5.28;;
51272;SDS011;37345;59.828;30.328;2022-12-07T05:03:50;9.77;;;5.38;;
51272;SDS011;37345;59.828;30.328;2022-12-07T05:06:16;8.55;;;4.72;;
51272;SDS011;37345;59.828;30.328;2022-12-07T05:08:42;8.07;;;5.10;;
51272;SDS011;37345;59.828;30.328;2022-12-07T05:11:09;9.45;;;5.30;;
51272;SDS011;37345;59.828;30.328;2022-12-07T05:13:55;9.10;;;5.60;;
51272;SDS011;37345;59.828;30.328;2022-12-07T05:16:21;8.80;;;5.72;;
51272;SDS011;37345;59.828;30.328;2022-12-07T05:18:47;10.10;;;5.20;;
51272;SDS011;37345;59.828;30.328;2022-12-07T05:21:13;10.43;;;5.47;;
51272;SDS011;37345;59.828;30.328;2022-12-07T05:23:40;9.73;;;5.57;;
51272;SDS011;37345;59.828;30.328;2022-12-07T05:26:06;9.10;;;5.13;;
51272;SDS011;37345;59.828;30.328;2022-12-07T05:28:32;9.02;;;5.07;;
51272;SDS011;37345;59.828;30.328;2022-12-07T05:30:58;8.13;;;5.00;;
51272;SDS011;37345;59.828;30.328;2022-12-07T05:33:24;9.65;;;5.40;;
51272;SDS011;37345;59.828;30.328;2022-12-07T05:35:50;10.17;;;5.23;;
51272;SDS011;37345;59.828;30.328;2022-12-07T05:38:16;8.43;;;5.10;;
51272;SDS011;37345;59.828;30.328;2022-12-07T05:40:42;8.57;;;5.22;;
51272;SDS011;37345;59.828;30.328;2022-12-07T05:43:08;8.38;;;5.13;;
51272;SDS011;37345;59.828;30.328;2022-12-07T05:45:34;8.45;;;5.13;;
51272;SDS011;37345;59.828;30.328;2022-12-07T05:48:01;9.83;;;5.00;;
51272;SDS011;37345;59.828;30.328;2022-12-07T05:50:27;7.70;;;4.88;;
51272;SDS011;37345;59.828;30.328;2022-12-07T05:52:53;9.70;;;4.88;;
51272;SDS011;37345;59.828;30.328;2022-12-07T05:55:19;9.77;;;4.95;;
51272;SDS011;37345;59.828;30.328;2022-12-07T05:57:45;8.40;;;4.70;;
51272;SDS011;37345;59.828;30.328;2022-12-07T06:00:30;8.53;;;4.83;;
51272;SDS011;37345;59.828;30.328;2022-12-07T06:02:57;7.90;;;4.67;;
51272;SDS011;37345;59.828;30.328;2022-12-07T06:05:23;8.88;;;5.05;;
51272;SDS011;37345;59.828;30.328;2022-12-07T06:07:49;7.15;;;4.65;;
51272;SDS011;37345;59.828;30.328;2022-12-07T06:10:15;8.77;;;4.75;;
51272;SDS011;37345;59.828;30.328;2022-12-07T06:12:41;7.95;;;4.22;;
51272;SDS011;37345;59.828;30.328;2022-12-07T06:15:10;7.57;;;4.40;;
51272;SDS011;37345;59.828;30.328;2022-12-07T06:17:38;7.30;;;4.40;;
51272;SDS011;37345;59.828;30.328;2022-12-07T06:20:04;9.13;;;4.90;;
51272;SDS011;37345;59.828;30.328;2022-12-07T06:22:30;8.73;;;4.32;;
51272;SDS011;37345;59.828;30.328;2022-12-07T06:24:56;6.60;;;3.97;;
51272;SDS011;37345;59.828;30.328;2022-12-07T06:27:23;6.93;;;4.28;;
51272;SDS011;37345;59.828;30.328;2022-12-07T06:29:49;8.57;;;4.68;;
51272;SDS011;37345;59.828;30.328;2022-12-07T06:32:15;6.63;;;4.32;;
51272;SDS011;37345;59.828;30.328;2022-12-07T06:34:44;9.50;;;4.40;;
51272;SDS011;37345;59.828;30.328;2022-12-07T06:37:12;6.57;;;4.23;;
51272;SDS011;37345;59.828;30.328;2022-12-07T06:39:38;7.32;;;4.20;;
51272;SDS011;37345;59.828;30.328;2022-12-07T06:42:04;6.88;;;3.67;;
51272;SDS011;37345;59.828;30.328;2022-12-07T06:44:30;6.38;;;3.83;;
51272;SDS011;37345;59.828;30.328;2022-12-07T06:46:57;5.93;;;3.60;;
51272;SDS011;37345;59.828;30.328;2022-12-07T06:49:24;5.43;;;3.47;;
51272;SDS011;37345;59.828;30.328;2022-12-07T06:51:50;8.25;;;3.88;;
51272;SDS011;37345;59.828;30.328;2022-12-07T06:54:16;7.13;;;3.35;;
51272;SDS011;37345;59.828;30.328;2022-12-07T06:56:42;6.43;;;3.42;;
51272;SDS011;37345;59.828;30.328;2022-12-07T06:59:08;5.70;;;3.20;;
51272;SDS011;37345;59.828;30.328;2022-12-07T07:01:35;6.78;;;3.50;;
51272;SDS011;37345;59.828;30.328;2022-12-07T07:04:01;5.65;;;3.88;;
51272;SDS011;37345;59.828;30.328;2022-12-07T07:06:27;5.83;;;3.57;;
51272;SDS011;37345;59.828;30.328;2022-12-07T07:08:53;5.45;;;3.35;;
51272;SDS011;37345;59.828;30.328;2022-12-07T07:11:20;6.72;;;3.50;;
51272;SDS011;37345;59.828;30.328;2022-12-07T07:13:46;5.72;;;3.53;;
51272;SDS011;37345;59.828;30.328;2022-12-07T07:16:12;6.30;;;3.70;;
51272;SDS011;37345;59.828;30.328;2022-12-07T07:18:41;4.47;;;3.33;;
51272;SDS011;37345;59.828;30.328;2022-12-07T07:21:07;5.60;;;3.55;;
51272;SDS011;37345;59.828;30.328;2022-12-07T07:23:33;5.45;;;3.25;;
51272;SDS011;37345;59.828;30.328;2022-12-07T07:25:59;6.85;;;3.40;;
51272;SDS011;37345;59.828;30.328;2022-12-07T07:28:26;5.15;;;3.28;;
51272;SDS011;37345;59.828;30.328;2022-12-07T07:30:52;4.40;;;2.90;;
51272;SDS011;37345;59.828;30.328;2022-12-07T07:33:18;6.15;;;2.92;;
51272;SDS011;37345;59.828;30.328;2022-12-07T07:35:44;5.10;;;3.50;;
51272;SDS011;37345;59.828;30.328;2022-12-07T07:38:10;4.03;;;3.08;;
51272;SDS011;37345;59.828;30.328;2022-12-07T07:40:36;5.97;;;3.30;;
51272;SDS011;37345;59.828;30.328;2022-12-07T07:43:02;6.18;;;3.28;;
51272;SDS011;37345;59.828;30.328;2022-12-07T07:45:28;4.72;;;2.92;;
51272;SDS011;37345;59.828;30.328;2022-12-07T07:47:55;4.40;;;2.92;;
51272;SDS011;37345;59.828;30.328;2022-12-07T07:50:21;5.63;;;3.30;;
51272;SDS011;37345;59.828;30.328;2022-12-07T07:52:47;7.15;;;3.65;;
51272;SDS011;37345;59.828;30.328;2022-12-07T07:55:14;7.45;;;2.42;;
51272;SDS011;37345;59.828;30.328;2022-12-07T07:57:40;6.60;;;2.83;;
51272;SDS011;37345;59.828;30.328;2022-12-07T08:00:07;4.00;;;2.85;;
51272;SDS011;37345;59.828;30.328;2022-12-07T08:02:34;4.57;;;2.97;;
51272;SDS011;37345;59.828;30.328;2022-12-07T08:05:00;4.57;;;2.67;;
51272;SDS011;37345;59.828;30.328;2022-12-07T08:07:29;9.40;;;3.87;;
51272;SDS011;37345;59.828;30.328;2022-12-07T08:09:55;3.90;;;2.63;;
51272;SDS011;37345;59.828;30.328;2022-12-07T08:12:21;5.72;;;2.95;;
51272;SDS011;37345;59.828;30.328;2022-12-07T08:14:47;5.95;;;3.22;;
51272;SDS011;37345;59.828;30.328;2022-12-07T08:17:13;6.00;;;3.03;;
51272;SDS011;37345;59.828;30.328;2022-12-07T08:19:39;5.35;;;2.80;;
51272;SDS011;37345;59.828;30.328;2022-12-07T08:22:05;4.60;;;2.60;;
51272;SDS011;37345;59.828;30.328;2022-12-07T08:24:35;4.47;;;2.20;;
51272;SDS011;37345;59.828;30.328;2022-12-07T08:27:01;5.60;;;3.13;;
51272;SDS011;37345;59.828;30.328;2022-12-07T08:29:28;8.10;;;3.20;;
51272;SDS011;37345;59.828;30.328;2022-12-07T08:31:54;3.90;;;2.75;;
51272;SDS011;37345;59.828;30.328;2022-12-07T08:34:20;5.97;;;3.13;;
51272;SDS011;37345;59.828;30.328;2022-12-07T08:36:46;6.28;;;3.08;;
51272;SDS011;37345;59.828;30.328;2022-12-07T08:39:12;5.60;;;3.10;;
51272;SDS011;37345;59.828;30.328;2022-12-07T08:41:38;7.05;;;3.58;;
51272;SDS011;37345;59.828;30.328;2022-12-07T08:44:04;5.28;;;3.03;;
51272;SDS011;37345;59.828;30.328;2022-12-07T08:46:35;8.98;;;3.20;;
51272;SDS011;37345;59.828;30.328;2022-12-07T08:49:10;6.47;;;3.40;;
51272;SDS011;37345;59.828;30.328;2022-12-07T08:51:38;6.18;;;2.90;;
51272;SDS011;37345;59.828;30.328;2022-12-07T08:54:05;5.57;;;3.15;;
51272;SDS011;37345;59.828;30.328;2022-12-07T08:56:32;6.15;;;2.97;;
51272;SDS011;37345;59.828;30.328;2022-12-07T08:58:58;7.30;;;3.10;;
51272;SDS011;37345;59.828;30.328;2022-12-07T09:01:24;5.47;;;3.50;;
51272;SDS011;37345;59.828;30.328;2022-12-07T09:03:52;7.55;;;3.53;;
51272;SDS011;37345;59.828;30.328;2022-12-07T09:06:18;10.10;;;4.18;;
51272;SDS011;37345;59.828;30.328;2022-12-07T09:08:49;6.07;;;3.38;;
51272;SDS011;37345;59.828;30.328;2022-12-07T09:11:16;6.70;;;2.90;;
51272;SDS011;37345;59.828;30.328;2022-12-07T09:13:42;5.57;;;3.28;;
51272;SDS011;37345;59.828;30.328;2022-12-07T09:16:08;7.20;;;3.70;;
51272;SDS011;37345;59.828;30.328;2022-12-07T09:18:34;7.72;;;3.75;;
51272;SDS011;37345;59.828;30.328;2022-12-07T09:21:00;6.87;;;3.30;;
51272;SDS011;37345;59.828;30.328;2022-12-07T09:23:26;5.47;;;3.45;;
51272;SDS011;37345;59.828;30.328;2022-12-07T09:25:52;6.30;;;3.05;;
51272;SDS011;37345;59.828;30.328;2022-12-07T09:28:18;6.30;;;3.30;;
51272;SDS011;37345;59.828;30.328;2022-12-07T09:30:48;8.70;;;3.50;;
51272;SDS011;37345;59.828;30.328;2022-12-07T09:33:14;5.28;;;3.28;;
51272;SDS011;37345;59.828;30.328;2022-12-07T09:35:58;5.83;;;3.27;;
51272;SDS011;37345;59.828;30.328;2022-12-07T09:38:25;7.32;;;2.80;;
51272;SDS011;37345;59.828;30.328;2022-12-07T09:40:51;4.03;;;2.65;;
51272;SDS011;37345;59.828;30.328;2022-12-07T09:43:19;5.88;;;3.35;;
51272;SDS011;37345;59.828;30.328;2022-12-07T09:45:47;6.22;;;2.75;;
51272;SDS011;37345;59.828;30.328;2022-12-07T09:48:16;5.00;;;2.60;;
51272;SDS011;37345;59.828;30.328;2022-12-07T09:50:43;3.80;;;2.75;;
51272;SDS011;37345;59.828;30.328;2022-12-07T09:53:18;4.28;;;2.60;;
51272;SDS011;37345;59.828;30.328;2022-12-07T09:55:45;4.40;;;3.00;;
51272;SDS011;37345;59.828;30.328;2022-12-07T09:58:21;4.57;;;2.95;;
51272;SDS011;37345;59.828;30.328;2022-12-07T10:00:50;4.72;;;2.63;;
51272;SDS011;37345;59.828;30.328;2022-12-07T10:03:16;3.40;;;2.20;;
51272;SDS011;37345;59.828;30.328;2022-12-07T10:05:44;5.40;;;2.90;;
51272;SDS011;37345;59.828;30.328;2022-12-07T10:08:11;6.20;;;3.08;;
51272;SDS011;37345;59.828;30.328;2022-12-07T10:10:37;6.63;;;3.55;;
51272;SDS011;37345;59.828;30.328;2022-12-07T10:13:09;3.95;;;2.67;;
51272;SDS011;37345;59.828;30.328;2022-12-07T10:15:43;5.53;;;2.40;;
51272;SDS011;37345;59.828;30.328;2022-12-07T10:18:42;4.10;;;2.33;;
51272;SDS011;37345;59.828;30.328;2022-12-07T10:23:34;5.20;;;3.13;;
51272;SDS011;37345;59.828;30.328;2022-12-07T10:27:01;6.63;;;3.17;;
51272;SDS011;37345;59.828;30.328;2022-12-07T10:29:01;3.00;;;2.17;;
51272;SDS011;37345;59.828;30.328;2022-12-07T10:31:27;5.55;;;3.30;;
51272;SDS011;37345;59.828;30.328;2022-12-07T10:33:55;5.35;;;3.15;;
51272;SDS011;37345;59.828;30.328;2022-12-07T10:36:26;7.15;;;3.38;;
51272;SDS011;37345;59.828;30.328;2022-12-07T10:38:59;4.07;;;2.80;;
51272;SDS011;37345;59.828;30.328;2022-12-07T10:41:26;5.68;;;3.38;;
51272;SDS011;37345;59.828;30.328;2022-12-07T10:43:54;7.22;;;3.30;;
51272;SDS011;37345;59.828;30.328;2022-12-07T10:48:51;4.85;;;2.72;;
51272;SDS011;37345;59.828;30.328;2022-12-07T10:56:26;5.47;;;3.00;;
51272;SDS011;37345;59.828;30.328;2022-12-07T10:59:19;4.57;;;2.42;;
51272;SDS011;37345;59.828;30.328;2022-12-07T11:02:09;6.00;;;2.60;;
51272;SDS011;37345;59.828;30.328;2022-12-07T11:04:43;4.45;;;2.80;;
51272;SDS011;37345;59.828;30.328;2022-12-07T11:07:22;4.40;;;2.55;;
51272;SDS011;37345;59.828;30.328;2022-12-07T11:15:28;4.03;;;2.50;;
51272;SDS011;37345;59.828;30.328;2022-12-07T11:20:29;1.48;;;1.30;;
51272;SDS011;37345;59.828;30.328;2022-12-07T11:28:27;4.80;;;2.75;;
51272;SDS011;37345;59.828;30.328;2022-12-07T11:31:10;9.55;;;2.97;;
51272;SDS011;37345;59.828;30.328;2022-12-07T11:36:27;2.65;;;1.80;;
51272;SDS011;37345;59.828;30.328;2022-12-07T11:38:57;3.60;;;2.30;;
51272;SDS011;37345;59.828;30.328;2022-12-07T11:41:27;6.97;;;3.50;;
51272;SDS011;37345;59.828;30.328;2022-12-07T11:43:56;5.35;;;2.70;;
51272;SDS011;37345;59.828;30.328;2022-12-07T11:46:25;6.07;;;2.78;;
51272;SDS011;37345;59.828;30.328;2022-12-07T11:51:21;6.38;;;2.65;;
51272;SDS011;37345;59.828;30.328;2022-12-07T11:53:49;7.50;;;2.90;;
51272;SDS011;37345;59.828;30.328;2022-12-07T11:56:19;5.63;;;3.00;;
51272;SDS011;37345;59.828;30.328;2022-12-07T11:58:51;4.07;;;2.60;;
51272;SDS011;37345;59.828;30.328;2022-12-07T12:06:37;4.97;;;2.40;;
51272;SDS011;37345;59.828;30.328;2022-12-07T12:09:22;6.85;;;3.45;;
51272;SDS011;37345;59.828;30.328;2022-12-07T12:19:37;7.00;;;3.05;;
51272;SDS011;37345;59.828;30.328;2022-12-07T12:22:11;6.65;;;3.17;;
51272;SDS011;37345;59.828;30.328;2022-12-07T12:24:46;7.18;;;3.13;;
51272;SDS011;37345;59.828;30.328;2022-12-07T12:30:05;4.28;;;2.90;;
51272;SDS011;37345;59.828;30.328;2022-12-07T12:32:41;8.70;;;3.17;;
51272;SDS011;37345;59.828;30.328;2022-12-07T12:35:21;5.68;;;2.83;;
51272;SDS011;37345;59.828;30.328;2022-12-07T12:37:48;7.82;;;3.30;;
51272;SDS011;37345;59.828;30.328;2022-12-07T12:42:52;4.63;;;2.77;;
51272;SDS011;37345;59.828;30.328;2022-12-07T12:45:23;9.25;;;3.58;;
51272;SDS011;37345;59.828;30.328;2022-12-07T12:50:34;6.13;;;3.10;;
51272;SDS011;37345;59.828;30.328;2022-12-07T12:58:40;7.38;;;3.35;;
51272;SDS011;37345;59.828;30.328;2022-12-07T13:04:01;6.72;;;3.15;;
51272;SDS011;37345;59.828;30.328;2022-12-07T13:06:35;6.53;;;3.13;;
51272;SDS011;37345;59.828;30.328;2022-12-07T13:09:03;6.95;;;3.50;;
51272;SDS011;37345;59.828;30.328;2022-12-07T13:11:31;6.55;;;2.83;;
51272;SDS011;37345;59.828;30.328;2022-12-07T13:16:43;6.13;;;3.40;;
51272;SDS011;37345;59.828;30.328;2022-12-07T13:21:54;7.05;;;3.25;;
51272;SDS011;37345;59.828;30.328;2022-12-07T13:24:21;5.50;;;3.23;;
51272;SDS011;37345;59.828;30.328;2022-12-07T13:26:47;6.97;;;2.88;;
51272;SDS011;37345;59.828;30.328;2022-12-07T13:36:54;5.43;;;3.60;;
51272;SDS011;37345;59.828;30.328;2022-12-07T13:39:22;6.20;;;2.55;;
51272;SDS011;37345;59.828;30.328;2022-12-07T13:41:52;5.20;;;2.78;;
51272;SDS011;37345;59.828;30.328;2022-12-07T13:44:19;7.18;;;2.97;;
51272;SDS011;37345;59.828;30.328;2022-12-07T13:49:31;8.23;;;3.50;;
51272;SDS011;37345;59.828;30.328;2022-12-07T13:52:17;6.18;;;3.30;;
51272;SDS011;37345;59.828;30.328;2022-12-07T13:54:48;5.67;;;3.00;;
51272;SDS011;37345;59.828;30.328;2022-12-07T13:57:17;6.05;;;2.97;;
51272;SDS011;37345;59.828;30.328;2022-12-07T13:59:44;6.65;;;3.22;;
51272;SDS011;37345;59.828;30.328;2022-12-07T14:02:20;5.38;;;3.13;;
51272;SDS011;37345;59.828;30.328;2022-12-07T14:04:48;6.22;;;3.38;;
51272;SDS011;37345;59.828;30.328;2022-12-07T14:07:22;8.02;;;3.65;;
51272;SDS011;37345;59.828;30.328;2022-12-07T14:09:59;6.78;;;3.30;;
51272;SDS011;37345;59.828;30.328;2022-12-07T14:12:26;5.70;;;2.67;;
51272;SDS011;37345;59.828;30.328;2022-12-07T14:14:53;6.53;;;3.42;;
51272;SDS011;37345;59.828;30.328;2022-12-07T14:17:24;7.30;;;3.25;;
51272;SDS011;37345;59.828;30.328;2022-12-07T14:19:51;5.00;;;2.30;;
51272;SDS011;37345;59.828;30.328;2022-12-07T14:22:22;3.60;;;1.77;;
51272;SDS011;37345;59.828;30.328;2022-12-07T14:24:48;5.70;;;2.53;;
51272;SDS011;37345;59.828;30.328;2022-12-07T14:27:21;5.05;;;2.80;;
51272;SDS011;37345;59.828;30.328;2022-12-07T14:29:47;7.67;;;3.23;;
51272;SDS011;37345;59.828;30.328;2022-12-07T14:32:24;6.72;;;3.33;;
51272;SDS011;37345;59.828;30.328;2022-12-07T14:34:57;4.70;;;3.17;;
51272;SDS011;37345;59.828;30.328;2022-12-07T14:37:24;5.37;;;2.60;;
51272;SDS011;37345;59.828;30.328;2022-12-07T14:39:50;5.28;;;3.20;;
51272;SDS011;37345;59.828;30.328;2022-12-07T14:42:16;7.80;;;3.97;;
51272;SDS011;37345;59.828;30.328;2022-12-07T14:44:43;6.63;;;3.78;;
51272;SDS011;37345;59.828;30.328;2022-12-07T14:47:12;8.10;;;4.00;;
51272;SDS011;37345;59.828;30.328;2022-12-07T14:49:38;5.78;;;3.72;;
51272;SDS011;37345;59.828;30.328;2022-12-07T14:52:05;5.53;;;3.22;;
51272;SDS011;37345;59.828;30.328;2022-12-07T14:54:32;7.03;;;4.10;;
51272;SDS011;37345;59.828;30.328;2022-12-07T14:56:58;7.68;;;3.75;;
51272;SDS011;37345;59.828;30.328;2022-12-07T14:59:24;7.63;;;3.80;;
51272;SDS011;37345;59.828;30.328;2022-12-07T15:01:50;5.55;;;3.05;;
51272;SDS011;37345;59.828;30.328;2022-12-07T15:04:16;5.28;;;3.47;;
51272;SDS011;37345;59.828;30.328;2022-12-07T15:06:53;7.97;;;4.10;;
51272;SDS011;37345;59.828;30.328;2022-12-07T15:09:20;8.20;;;3.47;;
51272;SDS011;37345;59.828;30.328;2022-12-07T15:11:46;7.47;;;4.15;;
51272;SDS011;37345;59.828;30.328;2022-12-07T15:14:12;9.65;;;3.85;;
51272;SDS011;37345;59.828;30.328;2022-12-07T15:16:39;6.88;;;3.33;;
51272;SDS011;37345;59.828;30.328;2022-12-07T15:19:06;7.22;;;3.47;;
51272;SDS011;37345;59.828;30.328;2022-12-07T15:21:32;8.85;;;3.80;;
51272;SDS011;37345;59.828;30.328;2022-12-07T15:23:58;8.30;;;4.28;;
51272;SDS011;37345;59.828;30.328;2022-12-07T15:26:24;11.00;;;5.25;;
51272;SDS011;37345;59.828;30.328;2022-12-07T15:28:53;7.63;;;3.83;;
51272;SDS011;37345;59.828;30.328;2022-12-07T15:31:19;9.00;;;4.10;;
51272;SDS011;37345;59.828;30.328;2022-12-07T15:33:45;6.20;;;3.28;;
51272;SDS011;37345;59.828;30.328;2022-12-07T15:36:18;8.27;;;4.43;;
51272;SDS011;37345;59.828;30.328;2022-12-07T15:38:45;11.65;;;5.18;;
51272;SDS011;37345;59.828;30.328;2022-12-07T15:41:12;8.43;;;5.13;;
51272;SDS011;37345;59.828;30.328;2022-12-07T15:43:38;6.38;;;4.00;;
51272;SDS011;37345;59.828;30.328;2022-12-07T15:46:22;9.40;;;5.40;;
51272;SDS011;37345;59.828;30.328;2022-12-07T15:48:49;11.35;;;4.88;;
51272;SDS011;37345;59.828;30.328;2022-12-07T15:51:15;9.55;;;4.97;;
51272;SDS011;37345;59.828;30.328;2022-12-07T15:53:41;5.93;;;3.85;;
51272;SDS011;37345;59.828;30.328;2022-12-07T15:56:08;7.72;;;4.78;;
51272;SDS011;37345;59.828;30.328;2022-12-07T15:58:34;6.77;;;4.50;;
51272;SDS011;37345;59.828;30.328;2022-12-07T16:01:08;5.32;;;3.22;;
51272;SDS011;37345;59.828;30.328;2022-12-07T16:03:35;7.00;;;4.50;;
51272;SDS011;37345;59.828;30.328;2022-12-07T16:06:01;8.93;;;4.60;;
51272;SDS011;37345;59.828;30.328;2022-12-07T16:08:27;8.75;;;4.78;;
51272;SDS011;37345;59.828;30.328;2022-12-07T16:10:53;8.23;;;4.28;;
51272;SDS011;37345;59.828;30.328;2022-12-07T16:13:19;9.23;;;3.83;;
51272;SDS011;37345;59.828;30.328;2022-12-07T16:15:46;6.40;;;3.80;;
51272;SDS011;37345;59.828;30.328;2022-12-07T16:18:12;5.90;;;2.78;;
51272;SDS011;37345;59.828;30.328;2022-12-07T16:20:38;6.90;;;3.30;;
51272;SDS011;37345;59.828;30.328;2022-12-07T16:23:05;7.90;;;4.38;;
51272;SDS011;37345;59.828;30.328;2022-12-07T16:25:32;7.15;;;3.60;;
51272;SDS011;37345;59.828;30.328;2022-12-07T16:27:58;6.28;;;3.72;;
51272;SDS011;37345;59.828;30.328;2022-12-07T16:30:27;9.13;;;3.47;;
51272;SDS011;37345;59.828;30.328;2022-12-07T16:32:53;8.50;;;4.00;;